Time;durP1;ratioP1;P1;durP2;ratioP2;P2;SDS_P1;SDS_P2;PMS_P1;PMS_P2;Temp;Humidity;BMP_temperature;BMP_pressure;BME280_temperature;BME280_humidity;BME280_pressure;Samples;Min_cycle;Max_cycle;Signal;HPM_P1;HPM_P2
2021/05/31 00:04:05;;;;;;;17.35;11.85;;;;;;;10.83;84.65;99555.15;3898634;88;21626;-81
2021/05/31 00:10:08;;;;;;;18.02;12.20;;;;;;;10.71;84.51;99543.00;3889714;90;21638;-81
2021/05/31 00:16:10;;;;;;;24.07;13.85;;;;;;;10.72;84.92;99546.74;3860335;90;21150;-80
2021/05/31 00:22:11;;;;;;;19.98;12.43;;;;;;;10.71;84.79;99553.35;3863789;90;21181;-80
2021/05/31 00:28:13;;;;;;;22.20;14.00;;;;;;;10.55;85.00;99540.91;3858667;90;21126;-80
2021/05/31 00:34:16;;;;;;;22.37;15.20;;;;;;;10.56;84.88;99531.54;3863367;90;21122;-80
2021/05/31 00:40:18;;;;;;;22.35;14.15;;;;;;;10.48;85.06;99533.92;3861526;90;21774;-80
2021/05/31 00:46:21;;;;;;;22.77;13.80;;;;;;;10.56;85.30;99527.44;3862494;90;21119;-80
2021/05/31 00:52:25;;;;;;;20.37;13.65;;;;;;;10.49;84.99;99522.61;3865342;90;21153;-80
2021/05/31 00:58:28;;;;;;;23.55;15.72;;;;;;;10.49;85.30;99521.23;3863164;90;21110;-80
2021/05/31 01:04:30;;;;;;;22.58;15.18;;;;;;;10.48;85.05;99518.30;3864826;90;21186;-80
2021/05/31 01:10:54;;;;;;;21.23;13.08;;;;;;;10.30;85.20;99518.53;3866568;89;21204;-80
2021/05/31 01:17:15;;;;;;;20.72;12.95;;;;;;;10.27;85.39;99508.88;3895569;90;21745;-80
2021/05/31 01:23:21;;;;;;;24.82;13.13;;;;;;;10.24;85.32;99507.63;3897619;90;21660;-80
2021/05/31 01:29:25;;;;;;;19.67;13.03;;;;;;;10.25;85.69;99512.54;3901385;90;21729;-80
2021/05/31 01:35:30;;;;;;;21.97;13.88;;;;;;;10.23;85.66;99511.53;3897605;90;21178;-80
2021/05/31 01:41:32;;;;;;;23.65;14.85;;;;;;;10.22;85.73;99514.63;3895691;90;21685;-80
2021/05/31 01:47:34;;;;;;;20.00;14.03;;;;;;;10.09;85.36;99527.66;3896798;90;21148;-80
2021/05/31 01:53:37;;;;;;;23.57;14.00;;;;;;;10.13;85.94;99523.03;3879365;90;21114;-81
2021/05/31 01:59:43;;;;;;;18.40;13.62;;;;;;;9.94;86.07;99523.01;3900201;89;21098;-81
2021/05/31 02:05:44;;;;;;;20.30;14.25;;;;;;;10.01;86.24;99516.88;3896909;90;21150;-80
2021/05/31 02:12:15;;;;;;;27.30;18.45;;;;;;;10.15;86.50;99513.91;3901128;90;21215;-80
2021/05/31 02:18:39;;;;;;;28.23;18.10;;;;;;;10.10;86.26;99507.94;3896622;90;21675;-80
2021/05/31 02:24:41;;;;;;;26.37;15.70;;;;;;;10.07;86.52;99506.69;3901516;90;21106;-80
2021/05/31 02:30:42;;;;;;;26.35;18.23;;;;;;;10.16;86.87;99496.36;3900983;90;21175;-81
2021/05/31 02:36:48;;;;;;;25.37;17.17;;;;;;;10.23;86.55;99498.42;3896918;90;21622;-80
2021/05/31 02:42:59;;;;;;;27.58;16.25;;;;;;;10.14;86.83;99497.84;3899310;90;21126;-80
2021/05/31 02:49:00;;;;;;;26.73;17.57;;;;;;;10.22;86.99;99502.32;3903842;90;21108;-80
2021/05/31 02:55:02;;;;;;;30.40;17.57;;;;;;;10.16;87.07;99493.62;3897852;90;21155;-79
2021/05/31 03:01:04;;;;;;;26.12;18.67;;;;;;;10.13;87.15;99491.58;3899323;90;21078;-81
2021/05/31 03:07:05;;;;;;;27.95;16.90;;;;;;;10.17;87.04;99499.30;3901791;90;21206;-81
2021/05/31 03:13:06;;;;;;;26.25;17.42;;;;;;;10.21;87.14;99504.25;3892990;90;21646;-80
2021/05/31 03:19:07;;;;;;;27.40;17.87;;;;;;;10.25;87.14;99502.39;3870186;90;21094;-80
2021/05/31 03:25:11;;;;;;;28.70;17.37;;;;;;;10.35;87.14;99505.91;3868428;90;21710;-80
2021/05/31 03:31:12;;;;;;;27.37;17.12;;;;;;;10.36;86.85;99502.60;3865155;90;21173;-80
2021/05/31 03:37:14;;;;;;;31.97;17.00;;;;;;;10.40;87.03;99503.45;3869607;90;21154;-81
2021/05/31 03:43:15;;;;;;;23.30;15.60;;;;;;;10.45;86.83;99505.34;3874035;90;21083;-80
2021/05/31 03:49:16;;;;;;;26.62;16.07;;;;;;;10.49;86.95;99502.67;3869659;90;21669;-81
2021/05/31 03:55:18;;;;;;;29.37;17.25;;;;;;;10.52;86.97;99506.83;3866828;90;21669;-80
2021/05/31 04:01:20;;;;;;;25.48;17.30;;;;;;;10.55;87.13;99502.02;3865853;90;21115;-81
2021/05/31 04:13:42;;;;;;;29.63;19.70;;;;;;;10.71;87.10;99499.19;3879226;90;21139;-81
2021/05/31 04:19:46;;;;;;;32.05;21.40;;;;;;;10.72;86.86;99493.34;3893224;90;21158;-80
2021/05/31 04:25:47;;;;;;;26.65;19.20;;;;;;;10.70;86.95;99490.17;3901305;90;21214;-84
2021/05/31 04:31:49;;;;;;;24.52;16.80;;;;;;;10.71;86.90;99508.17;3897512;90;21095;-80
2021/05/31 04:37:56;;;;;;;27.48;19.37;;;;;;;10.75;87.02;99502.20;3903655;90;21633;-81
2021/05/31 04:43:54;;;;;;;29.05;19.32;;;;;;;10.77;87.03;99499.09;3905968;90;21230;-81
2021/05/31 04:49:55;;;;;;;30.80;21.00;;;;;;;10.87;87.01;99496.55;3899056;90;21107;-81
2021/05/31 04:55:59;;;;;;;26.33;19.40;;;;;;;10.90;86.87;99488.96;3897622;90;21193;-80
2021/05/31 05:02:03;;;;;;;29.15;18.40;;;;;;;11.00;86.83;99494.41;3902035;90;21098;-81
2021/05/31 05:08:05;;;;;;;28.90;19.12;;;;;;;11.15;86.87;99493.48;3897469;90;21467;-84
2021/05/31 05:14:06;;;;;;;29.48;19.60;;;;;;;11.28;86.80;99492.14;3889678;90;21614;-81
2021/05/31 05:20:09;;;;;;;33.10;18.70;;;;;;;11.41;86.73;99483.94;3860800;90;21163;-81
2021/05/31 05:26:18;;;;;;;24.82;18.73;;;;;;;11.61;86.83;99489.53;3858546;90;21135;-81
2021/05/31 05:32:21;;;;;;;26.27;16.10;;;;;;;11.97;86.75;99490.27;3860630;90;21090;-81
2021/05/31 05:50:44;;;;;;;22.02;13.48;;;;;;;12.47;85.99;99492.45;3865719;90;21476;-82
2021/05/31 05:56:45;;;;;;;20.90;15.20;;;;;;;12.59;85.30;99488.06;3862838;90;21416;-82
2021/05/31 06:02:49;;;;;;;20.43;13.43;;;;;;;12.69;85.14;99483.86;3860882;89;21662;-81
2021/05/31 06:08:51;;;;;;;22.17;13.68;;;;;;;12.79;84.70;99487.88;3860537;90;22474;-81
2021/05/31 06:14:52;;;;;;;19.27;12.25;;;;;;;12.81;84.30;99482.80;3861201;90;21134;-81
2021/05/31 06:21:01;;;;;;;21.02;12.35;;;;;;;12.88;84.20;99485.61;3864261;90;22214;-81
2021/05/31 06:27:14;;;;;;;;;;;;;;;;;;;;;
2021/05/31 06:33:14;;;;;;;12.93;9.43;;;;;;;13.26;83.44;99482.45;3811188;92;23198;-81
2021/05/31 06:39:16;;;;;;;18.50;10.13;;;;;;;13.42;82.37;99476.88;3859471;90;21093;-82
2021/05/31 06:45:23;;;;;;;12.35;8.78;;;;;;;13.50;81.87;99481.26;3863367;90;21635;-82
2021/05/31 06:51:25;;;;;;;;;;;;;;;13.67;81.15;99481.96;3862979;90;21554;-81
2021/05/31 06:57:27;;;;;;;15.93;8.90;;;;;;;14.22;80.70;99481.27;3861936;90;20216;-82
2021/05/31 07:03:30;;;;;;;13.90;9.45;;;;;;;14.90;80.75;99474.80;3863822;90;21100;-82
2021/05/31 07:09:31;;;;;;;15.98;9.90;;;;;;;15.57;80.42;99466.76;3864495;90;21138;-82
2021/05/31 07:15:33;;;;;;;15.00;8.93;;;;;;;15.93;79.39;99472.22;3872782;89;21133;-82
2021/05/31 07:21:41;;;;;;;14.25;8.83;;;;;;;16.52;77.56;99467.06;3897903;90;21154;-83
2021/05/31 07:27:44;;;;;;;11.65;7.83;;;;;;;16.68;78.07;99465.97;3894706;90;21099;-83
2021/05/31 07:33:48;;;;;;;11.43;7.50;;;;;;;17.12;77.42;99459.94;3897048;90;22419;-83
2021/05/31 07:39:49;;;;;;;9.90;6.50;;;;;;;17.66;75.78;99460.28;3896881;90;21155;-82
2021/05/31 07:45:53;;;;;;;11.53;7.28;;;;;;;18.05;74.90;99453.14;3898157;89;21154;-83
2021/05/31 07:51:59;;;;;;;11.78;6.72;;;;;;;18.20;73.50;99458.69;3898508;90;21590;-82
2021/05/31 07:57:59;;;;;;;9.30;6.05;;;;;;;17.78;72.54;99449.48;3895088;90;21130;-82
2021/05/31 08:04:07;;;;;;;7.47;6.20;;;;;;;18.12;73.18;99446.73;3899188;90;21114;-83
2021/05/31 08:10:11;;;;;;;11.85;6.35;;;;;;;18.37;71.40;99440.28;3897242;90;21115;-83
2021/05/31 08:16:16;;;;;;;12.00;7.10;;;;;;;18.27;70.25;99433.67;3899110;90;21190;-83
2021/05/31 08:22:22;;;;;;;12.25;7.25;;;;;;;17.78;69.65;99423.77;3848991;90;22342;-82
2021/05/31 08:28:26;;;;;;;19.82;8.35;;;;;;;16.99;69.27;99425.66;3865305;90;21832;-82
2021/05/31 08:34:30;;;;;;;10.88;7.55;;;;;;;16.49;69.85;99427.19;3862705;90;21079;-83
2021/05/31 08:40:32;;;;;;;14.78;8.40;;;;;;;16.22;69.96;99421.20;3863860;90;21669;-82
2021/05/31 08:46:40;;;;;;;11.70;7.25;;;;;;;15.81;69.55;99419.59;3870210;90;21150;-83
2021/05/31 08:52:43;;;;;;;27.73;7.70;;;;;;;15.96;71.12;99416.19;3857988;90;21113;-83
2021/05/31 08:58:51;;;;;;;8.30;5.78;;;;;;;16.50;68.70;99400.35;3859643;90;21725;-82
2021/05/31 09:04:54;;;;;;;17.77;7.47;;;;;;;16.44;67.55;99422.66;3862491;90;21126;-83
2021/05/31 09:11:06;;;;;;;12.18;6.05;;;;;;;16.21;68.18;99412.73;3865753;90;21134;-83
2021/05/31 09:17:08;;;;;;;10.23;4.60;;;;;;;16.38;68.25;99396.66;3869982;90;21154;-82
2021/05/31 09:23:10;;;;;;;9.58;3.30;;;;;;;16.73;66.99;99398.61;3899735;90;21098;-82
2021/05/31 09:29:12;;;;;;;6.42;1.90;;;;;;;16.60;64.57;99396.75;3903286;90;21698;-82
2021/05/31 09:35:14;;;;;;;3.17;1.60;;;;;;;17.27;62.69;99383.16;3898878;90;21132;-82
2021/05/31 09:41:33;;;;;;;3.67;1.70;;;;;;;18.10;59.14;99388.94;3901072;90;21146;-83
2021/05/31 09:47:41;;;;;;;3.12;1.60;;;;;;;18.20;58.79;99389.41;3899299;90;21635;-79
2021/05/31 09:53:54;;;;;;;5.15;1.60;;;;;;;17.68;58.43;99386.69;3898298;90;21114;-82
2021/05/31 10:00:09;;;;;;;5.78;1.62;;;;;;;17.71;55.42;99390.02;3804640;90;174550;-82
2021/05/31 10:06:53;;;;;;;5.80;1.70;;;;;;;17.19;51.58;99394.09;3906978;88;21145;-82
2021/05/31 10:13:02;;;;;;;2.95;1.70;;;;;;;17.01;52.27;99397.59;3902675;90;21818;-82
2021/05/31 10:19:09;;;;;;;3.25;1.90;;;;;;;17.15;52.63;99391.94;3908245;88;21104;-82
2021/05/31 10:25:29;;;;;;;2.58;2.10;;;;;;;17.18;53.74;99380.85;3909933;89;21140;-82
2021/05/31 10:31:45;;;;;;;4.83;2.00;;;;;;;17.97;50.65;99382.40;3926934;89;21088;-84
2021/05/31 10:38:08;;;;;;;11.22;1.95;;;;;;;18.04;49.67;99379.52;3919940;88;21141;-81
2021/05/31 10:44:18;;;;;;;5.50;2.27;;;;;;;17.32;49.66;99378.53;3923720;89;21584;-82
2021/05/31 10:50:37;;;;;;;3.37;1.80;;;;;;;17.29;48.10;99376.59;3922753;89;21671;-81
2021/05/31 10:56:59;;;;;;;;;;;;;;;;;;;;;
2021/05/31 11:03:10;;;;;;;3.42;1.87;;;;;;;19.04;49.13;99359.66;3911900;89;21100;-83
2021/05/31 11:09:33;;;;;;;3.55;1.40;;;;;;;19.91;47.68;99352.26;3919615;89;21239;-82
2021/05/31 11:15:38;;;;;;;4.17;1.52;;;;;;;20.29;46.90;99348.50;3922023;89;21130;-82
2021/05/31 11:21:51;;;;;;;2.42;1.10;;;;;;;20.79;43.02;99355.25;3879087;90;21139;-82
2021/05/31 11:34:21;;;;;;;3.15;1.02;;;;;;;21.13;44.91;99343.69;3866767;90;21175;-82
2021/05/31 11:40:37;;;;;;;1.72;1.07;;;;;;;20.15;42.02;99346.82;3887985;87;21094;-82
2021/05/31 11:46:52;;;;;;;4.45;1.10;;;;;;;20.92;39.71;99343.58;3876046;90;21087;-82
2021/05/31 11:52:54;;;;;;;2.90;1.45;;;;;;;21.55;40.65;99336.98;3870472;90;21096;-83
2021/05/31 11:58:55;;;;;;;2.47;1.17;;;;;;;22.22;39.43;99328.09;3878204;90;21138;-82
2021/05/31 12:04:57;;;;;;;3.92;1.05;;;;;;;22.40;40.25;99327.71;3885875;89;21111;-83
2021/05/31 12:11:03;;;;;;;2.65;1.15;;;;;;;21.60;39.99;99326.69;3919208;89;32790;-83
2021/05/31 12:17:10;;;;;;;1.90;0.72;;;;;;;20.98;39.17;99319.63;3931261;89;21072;-83
2021/05/31 12:23:21;;;;;;;2.27;0.80;;;;;;;20.40;39.06;99316.47;3933408;87;21093;-82
2021/05/31 12:29:46;;;;;;;3.77;1.27;;;;;;;19.97;38.06;99319.98;3931045;89;21079;-81
2021/05/31 12:35:50;;;;;;;1.62;0.93;;;;;;;19.55;37.92;99308.36;3931668;89;21120;-85
2021/05/31 12:41:55;;;;;;;3.35;1.12;;;;;;;19.44;38.23;99296.68;3933228;89;21068;-82
2021/05/31 12:47:57;;;;;;;4.10;1.32;;;;;;;19.14;37.55;99295.47;3933595;89;21143;-81
2021/05/31 12:54:04;;;;;;;3.17;0.80;;;;;;;18.71;36.42;99290.64;3933325;89;21092;-82
2021/05/31 13:00:33;;;;;;;2.25;1.05;;;;;;;18.43;36.30;99291.11;3903747;86;129767;-82
2021/05/31 13:06:41;;;;;;;4.10;1.47;;;;;;;18.40;36.70;99283.64;3863932;90;21096;-82
2021/05/31 13:13:08;;;;;;;3.50;0.88;;;;;;;18.43;37.50;99273.72;3861951;90;21604;-82
2021/05/31 13:19:18;;;;;;;1.30;0.85;;;;;;;18.65;36.63;99276.33;3866714;90;21082;-81
2021/05/31 13:25:23;;;;;;;3.50;1.00;;;;;;;18.47;36.33;99276.61;3880981;90;21092;-81
2021/05/31 13:31:28;;;;;;;4.78;0.95;;;;;;;18.20;37.16;99279.17;3882972;90;21733;-82
2021/05/31 13:37:33;;;;;;;3.37;1.00;;;;;;;18.07;37.35;99280.34;3883665;90;21126;-82
2021/05/31 13:43:37;;;;;;;3.40;0.90;;;;;;;18.13;37.72;99265.44;3883227;90;21442;-82
2021/05/31 13:49:45;;;;;;;4.72;1.25;;;;;;;18.59;37.56;99257.19;3880801;90;21128;-82
2021/05/31 13:55:47;;;;;;;5.30;1.05;;;;;;;18.37;37.51;99262.90;3882314;90;21139;-80
2021/05/31 14:01:49;;;;;;;3.80;1.12;;;;;;;17.89;38.12;99270.13;3882677;90;21126;-83
2021/05/31 14:07:53;;;;;;;6.35;1.22;;;;;;;17.40;38.06;99276.27;3877476;89;21178;-83
2021/05/31 14:13:56;;;;;;;4.90;1.32;;;;;;;17.14;38.79;99276.97;3881154;90;21267;-83
2021/05/31 14:19:57;;;;;;;5.10;1.42;;;;;;;17.40;38.30;99281.03;3886711;90;21068;-81
2021/05/31 14:25:58;;;;;;;4.53;1.65;;;;;;;17.66;38.82;99277.57;3882051;90;21159;-83
2021/05/31 14:32:00;;;;;;;5.85;1.75;;;;;;;17.44;39.46;99279.83;3878594;90;21139;-82
2021/05/31 14:38:07;;;;;;;4.47;1.77;;;;;;;17.12;39.89;99279.35;3878844;90;21183;-83
2021/05/31 14:44:09;;;;;;;3.55;1.90;;;;;;;17.32;40.04;99276.78;3877865;90;21123;-83
2021/05/31 14:50:13;;;;;;;4.55;1.65;;;;;;;17.45;39.05;99275.84;3874368;90;21098;-82
2021/05/31 14:56:15;;;;;;;3.35;2.00;;;;;;;17.31;39.50;99283.48;3884278;90;21171;-82
2021/05/31 15:02:19;;;;;;;13.25;1.87;;;;;;;17.05;40.00;99279.44;3884098;90;21359;-82
2021/05/31 15:08:21;;;;;;;6.58;1.90;;;;;;;17.03;40.45;99269.37;3882112;90;21988;-81
2021/05/31 15:14:23;;;;;;;3.08;1.98;;;;;;;17.15;41.13;99276.55;3882081;90;21123;-82
2021/05/31 15:20:25;;;;;;;4.05;2.08;;;;;;;17.21;41.47;99279.67;3869629;90;21970;-82
2021/05/31 15:26:27;;;;;;;8.95;2.10;;;;;;;17.29;41.19;99286.67;3837943;91;21136;-81
2021/05/31 15:32:29;;;;;;;6.12;2.12;;;;;;;16.89;41.44;99281.97;3831943;91;21080;-82
2021/05/31 15:38:30;;;;;;;6.70;2.27;;;;;;;16.77;41.69;99279.72;3828902;91;21101;-81
2021/05/31 15:44:33;;;;;;;3.77;2.20;;;;;;;16.64;41.98;99277.27;3831619;91;21097;-81
2021/05/31 15:50:42;;;;;;;7.75;2.40;;;;;;;16.53;42.23;99278.74;3834706;91;21172;-82
2021/05/31 15:56:47;;;;;;;7.15;2.00;;;;;;;16.48;42.35;99279.76;3836331;91;21139;-82
2021/05/31 16:02:52;;;;;;;6.70;1.80;;;;;;;16.46;42.79;99271.11;3835515;91;21208;-81
2021/05/31 16:08:53;;;;;;;3.70;1.80;;;;;;;16.47;42.89;99272.67;3839204;91;21137;-81
2021/05/31 16:14:55;;;;;;;4.53;1.82;;;;;;;16.48;43.41;99268.12;3821029;91;21096;-80
2021/05/31 16:21:00;;;;;;;4.35;2.40;;;;;;;16.60;43.32;99264.08;3850106;90;21088;-82
2021/05/31 16:27:02;;;;;;;4.30;2.30;;;;;;;16.72;43.04;99262.98;3836234;91;21096;-82
2021/05/31 16:33:03;;;;;;;2.17;1.80;;;;;;;16.82;42.56;99266.23;3830830;91;21068;-82
2021/05/31 16:39:05;;;;;;;4.05;2.12;;;;;;;16.82;42.44;99268.20;3862676;87;47467;-80
2021/05/31 16:45:14;;;;;;;3.25;2.02;;;;;;;16.77;42.60;99265.90;3960353;88;21209;-82
2021/05/31 16:51:21;;;;;;;3.83;2.08;;;;;;;16.69;42.42;99258.27;3939768;88;21108;-81
2021/05/31 16:57:27;;;;;;;4.55;1.87;;;;;;;16.56;42.58;99259.17;3958891;88;21103;-83
2021/05/31 17:03:29;;;;;;;3.15;1.60;;;;;;;16.42;42.56;99260.05;3960397;88;21093;-81
2021/05/31 17:09:32;;;;;;;5.92;1.95;;;;;;;16.22;42.32;99261.80;3912054;90;21119;-81
2021/05/31 17:21:46;;;;;;;3.12;2.00;;;;;;;15.61;42.71;99253.66;3960494;88;21800;-81
2021/05/31 17:27:44;;;;;;;11.60;2.67;;;;;;;15.42;42.98;99263.03;3966035;88;21072;-80
2021/05/31 17:33:49;;;;;;;4.78;1.85;;;;;;;15.24;43.43;99268.58;3968810;88;21468;-80
2021/05/31 17:40:01;;;;;;;6.15;2.00;;;;;;;15.11;43.54;99267.42;3974295;87;21148;-82
2021/05/31 17:45:57;;;;;;;3.50;2.30;;;;;;;15.03;43.86;99276.13;3945885;88;21056;-80
2021/05/31 17:52:03;;;;;;;9.95;5.05;;;;;;;14.95;45.21;99267.09;3847968;91;21023;-82
2021/05/31 17:58:06;;;;;;;11.25;4.50;;;;;;;14.88;44.59;99263.53;3908942;89;21930;-82
2021/05/31 18:04:09;;;;;;;4.33;1.67;;;;;;;14.80;45.28;99265.52;3879493;90;21121;-83
2021/05/31 18:10:17;;;;;;;6.97;1.90;;;;;;;14.70;44.91;99269.68;3874561;90;21081;-81
2021/05/31 18:16:19;;;;;;;5.22;1.80;;;;;;;14.58;45.37;99265.35;3873331;89;21524;-80
2021/05/31 18:22:22;;;;;;;3.05;1.60;;;;;;;14.44;46.19;99270.10;3858153;90;21121;-80
2021/05/31 18:28:24;;;;;;;4.60;1.60;;;;;;;14.29;46.62;99276.77;3803852;92;21173;-81
2021/05/31 18:34:28;;;;;;;3.67;1.45;;;;;;;14.13;47.50;99278.48;3958320;87;21488;-82
2021/05/31 18:40:30;;;;;;;5.67;1.80;;;;;;;13.88;48.68;99292.79;3958283;88;21136;-81
2021/05/31 18:46:34;;;;;;;5.53;1.90;;;;;;;13.58;49.98;99298.59;3963155;87;21514;-81
2021/05/31 18:52:36;;;;;;;7.12;1.60;;;;;;;13.29;49.57;99304.36;3898055;89;21119;-80
2021/05/31 18:58:38;;;;;;;6.65;2.02;;;;;;;13.07;50.27;99315.03;3773610;89;9999788;-81
2021/05/31 19:04:40;;;;;;;5.83;2.20;;;;;;;12.92;49.84;99314.72;3879107;90;21111;-82
2021/05/31 19:10:42;;;;;;;6.15;2.45;;;;;;;12.75;49.53;99315.37;3862020;90;21151;-81
2021/05/31 19:16:45;;;;;;;6.33;3.83;;;;;;;12.48;49.84;99323.02;3850581;91;21129;-81
2021/05/31 19:22:47;;;;;;;5.62;4.00;;;;;;;12.14;50.56;99327.78;3869228;91;21065;-81
2021/05/31 19:28:53;;;;;;;6.58;3.45;;;;;;;11.86;50.91;99337.66;3812847;91;21067;-81
2021/05/31 19:34:56;;;;;;;11.25;6.72;;;;;;;11.61;53.36;99335.17;3970992;88;21072;-82
2021/05/31 19:40:57;;;;;;;16.85;7.30;;;;;;;11.28;53.63;99344.15;3899300;90;21143;-81
2021/05/31 19:47:01;;;;;;;10.63;6.50;;;;;;;10.95;53.67;99347.59;3973628;88;21628;-81
2021/05/31 19:53:16;;;;;;;13.55;6.10;;;;;;;10.68;54.56;99351.47;3973409;87;21115;-80
2021/05/31 20:12:07;;;;;;;19.10;9.57;;;;;;;10.16;57.40;99359.57;3750094;88;21216;-81
2021/05/31 20:18:18;;;;;;;17.77;9.05;;;;;;;9.99;58.28;99366.81;3956602;88;21418;-81
2021/05/31 20:24:37;;;;;;;16.90;7.65;;;;;;;9.86;58.91;99357.20;3934665;88;21152;-81
2021/05/31 20:30:49;;;;;;;15.85;7.20;;;;;;;9.72;58.98;99365.69;3980261;88;21092;-80
2021/05/31 20:36:56;;;;;;;18.75;8.43;;;;;;;9.63;59.18;99367.28;3977809;88;21100;-79
2021/05/31 20:43:07;;;;;;;19.30;7.58;;;;;;;9.43;59.65;99376.03;3979308;88;21139;-81
2021/05/31 20:49:08;;;;;;;24.35;9.90;;;;;;;9.25;59.92;99383.06;3978549;88;21578;-80
2021/05/31 20:55:17;;;;;;;36.90;11.03;;;;;;;9.01;60.93;99380.55;3985146;86;21119;-81
2021/05/31 21:01:33;;;;;;;34.25;12.98;;;;;;;9.11;62.11;99387.41;3959600;88;21168;-79
2021/05/31 21:07:48;;;;;;;29.75;11.25;;;;;;;9.17;62.56;99379.15;3977483;88;21124;-79
2021/05/31 21:14:00;;;;;;;25.15;11.03;;;;;;;8.94;62.28;99379.59;3980272;88;21471;-80
2021/05/31 21:20:24;;;;;;;25.65;10.32;;;;;;;8.71;62.29;99377.26;3982769;86;21580;-79
2021/05/31 21:26:18;;;;;;;26.27;10.82;;;;;;;8.51;63.37;99381.86;3953114;88;21192;-79
2021/05/31 21:32:26;;;;;;;21.02;8.45;;;;;;;8.25;63.60;99380.78;3963222;87;21132;-80
2021/05/31 21:38:38;;;;;;;13.78;7.35;;;;;;;8.20;64.18;99385.89;3953855;88;22201;-81
2021/05/31 21:44:45;;;;;;;26.73;7.78;;;;;;;8.14;64.89;99386.48;3958799;88;21164;-81
2021/05/31 21:50:59;;;;;;;14.93;8.00;;;;;;;7.99;64.90;99383.94;3962248;87;21163;-81
2021/05/31 21:57:06;;;;;;;11.43;6.58;;;;;;;7.84;65.02;99378.69;3963029;88;21069;-80
2021/05/31 22:03:17;;;;;;;14.80;5.87;;;;;;;7.66;65.42;99384.20;3962275;88;21124;-80
2021/05/31 22:09:37;;;;;;;13.85;6.80;;;;;;;7.59;66.87;99385.38;3963538;88;21152;-81
2021/05/31 22:34:52;;;;;;;17.23;9.43;;;;;;;7.29;66.99;99378.64;3940101;89;21629;-80
2021/05/31 23:12:45;;;;;;;13.65;7.10;;;;;;;6.83;69.61;99365.52;3874807;90;21112;-80
2021/05/31 23:18:48;;;;;;;19.60;9.13;;;;;;;6.94;70.43;99361.80;3876761;90;21245;-82
2021/05/31 23:24:52;;;;;;;22.62;9.23;;;;;;;6.88;69.51;99359.06;3865813;90;21133;-80
2021/05/31 23:31:03;;;;;;;;;;;;;;;;;;;;;
2021/05/31 23:37:13;;;;;;;13.95;7.87;;;;;;;6.51;69.84;99361.00;3818833;91;21301;-80
2021/05/31 23:43:23;;;;;;;19.25;9.25;;;;;;;6.42;70.21;99358.16;3875223;90;21088;-80
2021/05/31 23:49:25;;;;;;;21.82;9.85;;;;;;;6.42;70.71;99348.64;3867310;90;21145;-80
2021/05/31 23:55:27;;;;;;;17.92;9.60;;;;;;;6.30;70.92;99347.50;3821597;91;21709;-80
